sensor_id;sensor_type;location;lat;lon;timestamp;P1;durP1;ratioP1;P2;durP2;ratioP2
46266;SDS011;31998;48.798;15.066;2023-09-07T00:01:18;2.97;;;2.83;;
46266;SDS011;31998;48.798;15.066;2023-09-07T00:03:43;1.77;;;1.73;;
46266;SDS011;31998;48.798;15.066;2023-09-07T00:06:09;2.40;;;2.30;;
46266;SDS011;31998;48.798;15.066;2023-09-07T00:08:35;7.93;;;2.57;;
46266;SDS011;31998;48.798;15.066;2023-09-07T00:11:03;2.80;;;2.70;;
46266;SDS011;31998;48.798;15.066;2023-09-07T00:13:29;2.53;;;2.43;;
46266;SDS011;31998;48.798;15.066;2023-09-07T00:15:57;2.53;;;2.43;;
46266;SDS011;31998;48.798;15.066;2023-09-07T00:18:23;6.67;;;3.50;;
46266;SDS011;31998;48.798;15.066;2023-09-07T00:20:48;3.13;;;3.03;;
46266;SDS011;31998;48.798;15.066;2023-09-07T00:23:13;3.17;;;3.07;;
46266;SDS011;31998;48.798;15.066;2023-09-07T00:25:38;3.50;;;3.30;;
46266;SDS011;31998;48.798;15.066;2023-09-07T00:28:04;2.90;;;2.80;;
46266;SDS011;31998;48.798;15.066;2023-09-07T00:30:29;9.20;;;3.00;;
46266;SDS011;31998;48.798;15.066;2023-09-07T00:32:54;2.30;;;2.20;;
46266;SDS011;31998;48.798;15.066;2023-09-07T00:35:19;1.90;;;1.90;;
46266;SDS011;31998;48.798;15.066;2023-09-07T00:37:45;1.70;;;1.60;;
46266;SDS011;31998;48.798;15.066;2023-09-07T00:40:10;2.10;;;2.00;;
46266;SDS011;31998;48.798;15.066;2023-09-07T00:42:36;2.40;;;2.30;;
46266;SDS011;31998;48.798;15.066;2023-09-07T00:45:01;2.53;;;2.37;;
46266;SDS011;31998;48.798;15.066;2023-09-07T00:47:26;41.57;;;3.40;;
46266;SDS011;31998;48.798;15.066;2023-09-07T00:49:52;6.60;;;2.53;;
46266;SDS011;31998;48.798;15.066;2023-09-07T00:52:17;2.03;;;1.93;;
46266;SDS011;31998;48.798;15.066;2023-09-07T00:54:43;476.73;;;17.73;;
46266;SDS011;31998;48.798;15.066;2023-09-07T00:57:08;1.73;;;1.67;;
46266;SDS011;31998;48.798;15.066;2023-09-07T00:59:34;2.23;;;2.13;;
46266;SDS011;31998;48.798;15.066;2023-09-07T01:01:59;2.63;;;2.53;;
46266;SDS011;31998;48.798;15.066;2023-09-07T01:04:24;2.13;;;2.03;;
46266;SDS011;31998;48.798;15.066;2023-09-07T01:06:56;2.60;;;2.50;;
46266;SDS011;31998;48.798;15.066;2023-09-07T01:09:26;137.67;;;7.07;;
46266;SDS011;31998;48.798;15.066;2023-09-07T01:11:52;3.07;;;2.87;;
46266;SDS011;31998;48.798;15.066;2023-09-07T01:14:18;2.90;;;2.80;;
46266;SDS011;31998;48.798;15.066;2023-09-07T01:16:43;2.67;;;2.57;;
46266;SDS011;31998;48.798;15.066;2023-09-07T01:19:08;2.20;;;2.10;;
46266;SDS011;31998;48.798;15.066;2023-09-07T01:21:35;2.63;;;2.53;;
46266;SDS011;31998;48.798;15.066;2023-09-07T01:24:01;2.83;;;2.63;;
46266;SDS011;31998;48.798;15.066;2023-09-07T01:26:26;2.50;;;2.40;;
46266;SDS011;31998;48.798;15.066;2023-09-07T01:28:51;52.63;;;5.03;;
46266;SDS011;31998;48.798;15.066;2023-09-07T01:31:17;3.00;;;2.80;;
46266;SDS011;31998;48.798;15.066;2023-09-07T01:33:42;2.53;;;2.43;;
46266;SDS011;31998;48.798;15.066;2023-09-07T01:36:07;4.07;;;3.07;;
46266;SDS011;31998;48.798;15.066;2023-09-07T01:38:32;2.60;;;2.50;;
46266;SDS011;31998;48.798;15.066;2023-09-07T01:40:58;5.13;;;2.20;;
46266;SDS011;31998;48.798;15.066;2023-09-07T01:43:23;2.20;;;2.10;;
46266;SDS011;31998;48.798;15.066;2023-09-07T01:45:48;5.23;;;3.00;;
46266;SDS011;31998;48.798;15.066;2023-09-07T01:48:13;2.67;;;2.57;;
46266;SDS011;31998;48.798;15.066;2023-09-07T01:50:39;4.87;;;2.53;;
46266;SDS011;31998;48.798;15.066;2023-09-07T01:53:04;2.77;;;2.67;;
46266;SDS011;31998;48.798;15.066;2023-09-07T01:55:32;3.20;;;3.10;;
46266;SDS011;31998;48.798;15.066;2023-09-07T01:57:58;26.73;;;3.73;;
46266;SDS011;31998;48.798;15.066;2023-09-07T02:00:23;2.20;;;2.10;;
46266;SDS011;31998;48.798;15.066;2023-09-07T02:02:48;5.47;;;2.50;;
46266;SDS011;31998;48.798;15.066;2023-09-07T02:05:13;2.33;;;2.23;;
46266;SDS011;31998;48.798;15.066;2023-09-07T02:07:39;2.90;;;2.70;;
46266;SDS011;31998;48.798;15.066;2023-09-07T02:10:04;3.70;;;3.50;;
46266;SDS011;31998;48.798;15.066;2023-09-07T02:12:29;3.60;;;3.40;;
46266;SDS011;31998;48.798;15.066;2023-09-07T02:14:55;3.20;;;3.10;;
46266;SDS011;31998;48.798;15.066;2023-09-07T02:17:20;3.40;;;3.20;;
46266;SDS011;31998;48.798;15.066;2023-09-07T02:19:46;4.83;;;3.07;;
46266;SDS011;31998;48.798;15.066;2023-09-07T02:22:11;4.07;;;2.20;;
46266;SDS011;31998;48.798;15.066;2023-09-07T02:24:36;3.47;;;2.70;;
46266;SDS011;31998;48.798;15.066;2023-09-07T02:27:02;2.40;;;2.30;;
46266;SDS011;31998;48.798;15.066;2023-09-07T02:29:27;2.43;;;2.33;;
46266;SDS011;31998;48.798;15.066;2023-09-07T02:31:52;2.90;;;2.20;;
46266;SDS011;31998;48.798;15.066;2023-09-07T02:34:17;2.43;;;2.23;;
46266;SDS011;31998;48.798;15.066;2023-09-07T02:36:43;2.70;;;2.50;;
46266;SDS011;31998;48.798;15.066;2023-09-07T02:39:08;3.00;;;2.80;;
46266;SDS011;31998;48.798;15.066;2023-09-07T02:41:33;2.47;;;2.37;;
46266;SDS011;31998;48.798;15.066;2023-09-07T02:43:58;3.33;;;3.13;;
46266;SDS011;31998;48.798;15.066;2023-09-07T02:46:24;3.17;;;2.97;;
46266;SDS011;31998;48.798;15.066;2023-09-07T02:48:49;2.97;;;2.87;;
46266;SDS011;31998;48.798;15.066;2023-09-07T02:51:14;3.33;;;3.03;;
46266;SDS011;31998;48.798;15.066;2023-09-07T02:53:40;3.73;;;3.53;;
46266;SDS011;31998;48.798;15.066;2023-09-07T02:56:05;3.70;;;3.50;;
46266;SDS011;31998;48.798;15.066;2023-09-07T02:58:30;5.90;;;3.30;;
46266;SDS011;31998;48.798;15.066;2023-09-07T03:00:56;3.23;;;3.03;;
46266;SDS011;31998;48.798;15.066;2023-09-07T03:03:21;3.37;;;3.17;;
46266;SDS011;31998;48.798;15.066;2023-09-07T03:05:46;3.70;;;3.40;;
46266;SDS011;31998;48.798;15.066;2023-09-07T03:08:12;3.00;;;2.80;;
46266;SDS011;31998;48.798;15.066;2023-09-07T03:10:37;6.07;;;3.57;;
46266;SDS011;31998;48.798;15.066;2023-09-07T03:13:04;2.70;;;2.50;;
46266;SDS011;31998;48.798;15.066;2023-09-07T03:15:30;2.50;;;2.40;;
46266;SDS011;31998;48.798;15.066;2023-09-07T03:17:55;1.87;;;1.77;;
46266;SDS011;31998;48.798;15.066;2023-09-07T03:20:20;3.07;;;2.80;;
46266;SDS011;31998;48.798;15.066;2023-09-07T03:22:46;24.77;;;2.73;;
46266;SDS011;31998;48.798;15.066;2023-09-07T03:25:11;2.37;;;2.27;;
46266;SDS011;31998;48.798;15.066;2023-09-07T03:27:37;6.50;;;2.80;;
46266;SDS011;31998;48.798;15.066;2023-09-07T03:30:02;2.50;;;2.40;;
46266;SDS011;31998;48.798;15.066;2023-09-07T03:32:29;2.40;;;2.30;;
46266;SDS011;31998;48.798;15.066;2023-09-07T03:34:57;2.83;;;2.50;;
46266;SDS011;31998;48.798;15.066;2023-09-07T03:37:22;2.53;;;2.43;;
46266;SDS011;31998;48.798;15.066;2023-09-07T03:39:48;2.93;;;2.73;;
46266;SDS011;31998;48.798;15.066;2023-09-07T03:42:13;2.83;;;2.63;;
46266;SDS011;31998;48.798;15.066;2023-09-07T03:44:38;2.90;;;2.80;;
46266;SDS011;31998;48.798;15.066;2023-09-07T03:47:04;4.70;;;2.87;;
46266;SDS011;31998;48.798;15.066;2023-09-07T03:49:30;2.80;;;2.70;;
46266;SDS011;31998;48.798;15.066;2023-09-07T03:51:55;5.60;;;2.47;;
46266;SDS011;31998;48.798;15.066;2023-09-07T03:54:20;3.73;;;2.27;;
46266;SDS011;31998;48.798;15.066;2023-09-07T03:56:45;2.00;;;1.90;;
46266;SDS011;31998;48.798;15.066;2023-09-07T03:59:11;2.40;;;2.30;;
46266;SDS011;31998;48.798;15.066;2023-09-07T04:01:36;1.97;;;1.87;;
46266;SDS011;31998;48.798;15.066;2023-09-07T04:04:01;3.13;;;3.03;;
46266;SDS011;31998;48.798;15.066;2023-09-07T04:06:26;2.40;;;2.30;;
46266;SDS011;31998;48.798;15.066;2023-09-07T04:08:51;2.80;;;2.60;;
46266;SDS011;31998;48.798;15.066;2023-09-07T04:11:17;2.53;;;2.43;;
46266;SDS011;31998;48.798;15.066;2023-09-07T04:13:42;2.30;;;2.20;;
46266;SDS011;31998;48.798;15.066;2023-09-07T04:16:08;2.60;;;2.40;;
46266;SDS011;31998;48.798;15.066;2023-09-07T04:18:33;2.27;;;2.13;;
46266;SDS011;31998;48.798;15.066;2023-09-07T04:21:08;2.40;;;2.30;;
46266;SDS011;31998;48.798;15.066;2023-09-07T04:23:33;2.10;;;2.00;;
46266;SDS011;31998;48.798;15.066;2023-09-07T04:26:08;3.23;;;2.13;;
46266;SDS011;31998;48.798;15.066;2023-09-07T04:28:33;2.50;;;2.40;;
46266;SDS011;31998;48.798;15.066;2023-09-07T04:30:58;2.10;;;2.00;;
46266;SDS011;31998;48.798;15.066;2023-09-07T04:33:24;3.10;;;2.90;;
46266;SDS011;31998;48.798;15.066;2023-09-07T04:35:49;2.90;;;2.80;;
46266;SDS011;31998;48.798;15.066;2023-09-07T04:38:14;2.80;;;2.70;;
46266;SDS011;31998;48.798;15.066;2023-09-07T04:40:39;5.53;;;3.00;;
46266;SDS011;31998;48.798;15.066;2023-09-07T04:43:04;3.20;;;2.97;;
46266;SDS011;31998;48.798;15.066;2023-09-07T04:45:30;2.80;;;2.60;;
46266;SDS011;31998;48.798;15.066;2023-09-07T04:47:55;3.33;;;3.20;;
46266;SDS011;31998;48.798;15.066;2023-09-07T04:50:20;5.30;;;2.80;;
46266;SDS011;31998;48.798;15.066;2023-09-07T04:52:45;2.20;;;2.10;;
46266;SDS011;31998;48.798;15.066;2023-09-07T04:55:11;4.30;;;2.60;;
46266;SDS011;31998;48.798;15.066;2023-09-07T04:57:36;2.77;;;2.67;;
46266;SDS011;31998;48.798;15.066;2023-09-07T05:00:02;3.30;;;3.10;;
46266;SDS011;31998;48.798;15.066;2023-09-07T05:02:28;3.93;;;3.30;;
46266;SDS011;31998;48.798;15.066;2023-09-07T05:04:53;11.60;;;3.80;;
46266;SDS011;31998;48.798;15.066;2023-09-07T05:07:19;7.40;;;4.90;;
46266;SDS011;31998;48.798;15.066;2023-09-07T05:09:44;17.43;;;4.07;;
46266;SDS011;31998;48.798;15.066;2023-09-07T05:12:09;5.80;;;3.60;;
46266;SDS011;31998;48.798;15.066;2023-09-07T05:14:35;6.93;;;3.73;;
46266;SDS011;31998;48.798;15.066;2023-09-07T05:17:01;5.40;;;3.90;;
46266;SDS011;31998;48.798;15.066;2023-09-07T05:19:26;9.50;;;4.40;;
46266;SDS011;31998;48.798;15.066;2023-09-07T05:21:52;3.20;;;3.10;;
46266;SDS011;31998;48.798;15.066;2023-09-07T05:24:17;10.27;;;5.70;;
46266;SDS011;31998;48.798;15.066;2023-09-07T05:26:42;5.40;;;4.97;;
46266;SDS011;31998;48.798;15.066;2023-09-07T05:29:08;15.03;;;6.00;;
46266;SDS011;31998;48.798;15.066;2023-09-07T05:31:33;13.20;;;6.03;;
46266;SDS011;31998;48.798;15.066;2023-09-07T05:33:58;12.63;;;7.47;;
46266;SDS011;31998;48.798;15.066;2023-09-07T05:36:25;7.67;;;6.87;;
46266;SDS011;31998;48.798;15.066;2023-09-07T05:38:52;16.23;;;9.60;;
46266;SDS011;31998;48.798;15.066;2023-09-07T05:41:17;11.47;;;10.03;;
46266;SDS011;31998;48.798;15.066;2023-09-07T05:43:42;14.60;;;11.80;;
46266;SDS011;31998;48.798;15.066;2023-09-07T05:46:07;21.30;;;16.93;;
46266;SDS011;31998;48.798;15.066;2023-09-07T05:48:33;21.50;;;16.67;;
46266;SDS011;31998;48.798;15.066;2023-09-07T05:50:58;23.13;;;19.70;;
46266;SDS011;31998;48.798;15.066;2023-09-07T05:53:23;27.10;;;19.53;;
46266;SDS011;31998;48.798;15.066;2023-09-07T05:55:49;24.17;;;17.73;;
46266;SDS011;31998;48.798;15.066;2023-09-07T05:58:15;20.37;;;16.87;;
46266;SDS011;31998;48.798;15.066;2023-09-07T06:00:40;20.63;;;13.63;;
46266;SDS011;31998;48.798;15.066;2023-09-07T06:03:06;18.30;;;13.30;;
46266;SDS011;31998;48.798;15.066;2023-09-07T06:05:33;11.70;;;10.70;;
46266;SDS011;31998;48.798;15.066;2023-09-07T06:07:58;17.20;;;11.10;;
46266;SDS011;31998;48.798;15.066;2023-09-07T06:10:23;9.20;;;8.40;;
46266;SDS011;31998;48.798;15.066;2023-09-07T06:12:49;9.60;;;8.87;;
46266;SDS011;31998;48.798;15.066;2023-09-07T06:15:14;13.03;;;10.43;;
46266;SDS011;31998;48.798;15.066;2023-09-07T06:17:39;9.73;;;8.60;;
46266;SDS011;31998;48.798;15.066;2023-09-07T06:20:05;9.50;;;8.70;;
46266;SDS011;31998;48.798;15.066;2023-09-07T06:22:30;11.10;;;8.27;;
46266;SDS011;31998;48.798;15.066;2023-09-07T06:24:56;10.47;;;9.37;;
46266;SDS011;31998;48.798;15.066;2023-09-07T06:27:21;8.93;;;8.23;;
46266;SDS011;31998;48.798;15.066;2023-09-07T06:29:46;9.83;;;8.73;;
46266;SDS011;31998;48.798;15.066;2023-09-07T06:32:11;9.37;;;8.33;;
46266;SDS011;31998;48.798;15.066;2023-09-07T06:34:37;8.40;;;7.60;;
46266;SDS011;31998;48.798;15.066;2023-09-07T06:37:02;19.93;;;7.83;;
46266;SDS011;31998;48.798;15.066;2023-09-07T06:39:27;9.03;;;8.17;;
46266;SDS011;31998;48.798;15.066;2023-09-07T06:41:53;12.23;;;7.53;;
46266;SDS011;31998;48.798;15.066;2023-09-07T06:44:18;6.97;;;6.50;;
46266;SDS011;31998;48.798;15.066;2023-09-07T06:46:43;9.00;;;7.80;;
46266;SDS011;31998;48.798;15.066;2023-09-07T06:49:08;11.43;;;7.13;;
46266;SDS011;31998;48.798;15.066;2023-09-07T06:51:34;7.93;;;7.30;;
46266;SDS011;31998;48.798;15.066;2023-09-07T06:53:59;10.53;;;7.63;;
46266;SDS011;31998;48.798;15.066;2023-09-07T06:56:25;19.43;;;7.27;;
46266;SDS011;31998;48.798;15.066;2023-09-07T06:58:51;10.37;;;7.30;;
46266;SDS011;31998;48.798;15.066;2023-09-07T07:01:16;8.17;;;7.20;;
46266;SDS011;31998;48.798;15.066;2023-09-07T07:03:42;8.50;;;7.70;;
46266;SDS011;31998;48.798;15.066;2023-09-07T07:06:07;6.60;;;6.00;;
46266;SDS011;31998;48.798;15.066;2023-09-07T07:08:32;7.30;;;6.70;;
46266;SDS011;31998;48.798;15.066;2023-09-07T07:10:58;7.37;;;6.50;;
46266;SDS011;31998;48.798;15.066;2023-09-07T07:13:23;9.73;;;6.33;;
46266;SDS011;31998;48.798;15.066;2023-09-07T07:15:48;9.33;;;6.37;;
46266;SDS011;31998;48.798;15.066;2023-09-07T07:18:14;7.03;;;5.90;;
46266;SDS011;31998;48.798;15.066;2023-09-07T07:20:39;6.73;;;6.20;;
46266;SDS011;31998;48.798;15.066;2023-09-07T07:23:05;5.83;;;5.17;;
46266;SDS011;31998;48.798;15.066;2023-09-07T07:25:33;6.30;;;5.80;;
46266;SDS011;31998;48.798;15.066;2023-09-07T07:27:59;6.00;;;5.60;;
46266;SDS011;31998;48.798;15.066;2023-09-07T07:30:28;5.60;;;5.30;;
46266;SDS011;31998;48.798;15.066;2023-09-07T07:32:56;13.80;;;6.30;;
46266;SDS011;31998;48.798;15.066;2023-09-07T07:35:21;5.57;;;5.27;;
46266;SDS011;31998;48.798;15.066;2023-09-07T07:37:46;5.60;;;5.30;;
46266;SDS011;31998;48.798;15.066;2023-09-07T07:40:12;10.23;;;4.93;;
46266;SDS011;31998;48.798;15.066;2023-09-07T07:42:37;5.93;;;5.40;;
46266;SDS011;31998;48.798;15.066;2023-09-07T07:45:02;5.27;;;4.77;;
46266;SDS011;31998;48.798;15.066;2023-09-07T07:47:28;5.30;;;4.90;;
46266;SDS011;31998;48.798;15.066;2023-09-07T07:49:53;5.20;;;4.70;;
46266;SDS011;31998;48.798;15.066;2023-09-07T07:52:18;8.10;;;4.33;;
46266;SDS011;31998;48.798;15.066;2023-09-07T07:54:43;9.80;;;4.97;;
46266;SDS011;31998;48.798;15.066;2023-09-07T07:57:09;4.73;;;4.33;;
46266;SDS011;31998;48.798;15.066;2023-09-07T07:59:34;5.07;;;4.77;;
46266;SDS011;31998;48.798;15.066;2023-09-07T08:01:59;7.47;;;5.63;;
46266;SDS011;31998;48.798;15.066;2023-09-07T08:04:24;5.20;;;4.77;;
46266;SDS011;31998;48.798;15.066;2023-09-07T08:06:49;6.50;;;4.57;;
46266;SDS011;31998;48.798;15.066;2023-09-07T08:09:15;4.63;;;4.27;;
46266;SDS011;31998;48.798;15.066;2023-09-07T08:11:41;4.43;;;4.03;;
46266;SDS011;31998;48.798;15.066;2023-09-07T08:14:06;4.53;;;3.87;;
46266;SDS011;31998;48.798;15.066;2023-09-07T08:16:32;3.73;;;3.43;;
46266;SDS011;31998;48.798;15.066;2023-09-07T08:18:57;5.73;;;4.20;;
46266;SDS011;31998;48.798;15.066;2023-09-07T08:21:22;3.33;;;3.13;;
46266;SDS011;31998;48.798;15.066;2023-09-07T08:23:47;4.03;;;3.83;;
46266;SDS011;31998;48.798;15.066;2023-09-07T08:26:13;5.80;;;3.73;;
46266;SDS011;31998;48.798;15.066;2023-09-07T08:28:39;7.00;;;4.17;;
46266;SDS011;31998;48.798;15.066;2023-09-07T08:31:05;3.73;;;3.53;;
46266;SDS011;31998;48.798;15.066;2023-09-07T08:33:31;4.80;;;3.50;;
46266;SDS011;31998;48.798;15.066;2023-09-07T08:36:04;4.93;;;3.50;;
46266;SDS011;31998;48.798;15.066;2023-09-07T08:38:30;3.80;;;3.50;;
46266;SDS011;31998;48.798;15.066;2023-09-07T08:40:56;3.93;;;3.60;;
46266;SDS011;31998;48.798;15.066;2023-09-07T08:43:25;3.90;;;3.60;;
46266;SDS011;31998;48.798;15.066;2023-09-07T08:45:55;3.33;;;3.13;;
46266;SDS011;31998;48.798;15.066;2023-09-07T08:48:25;4.63;;;3.20;;
46266;SDS011;31998;48.798;15.066;2023-09-07T08:50:51;3.53;;;3.30;;
46266;SDS011;31998;48.798;15.066;2023-09-07T08:53:17;6.30;;;3.10;;
46266;SDS011;31998;48.798;15.066;2023-09-07T08:55:44;4.10;;;3.80;;
46266;SDS011;31998;48.798;15.066;2023-09-07T08:58:09;3.90;;;3.20;;
46266;SDS011;31998;48.798;15.066;2023-09-07T09:00:34;7.50;;;4.07;;
46266;SDS011;31998;48.798;15.066;2023-09-07T09:03:00;3.43;;;3.23;;
46266;SDS011;31998;48.798;15.066;2023-09-07T09:05:25;8.00;;;2.90;;
46266;SDS011;31998;48.798;15.066;2023-09-07T09:08:03;3.87;;;3.67;;
46266;SDS011;31998;48.798;15.066;2023-09-07T09:10:29;3.67;;;3.47;;
46266;SDS011;31998;48.798;15.066;2023-09-07T09:12:54;6.43;;;3.00;;
46266;SDS011;31998;48.798;15.066;2023-09-07T09:15:22;3.30;;;3.10;;
46266;SDS011;31998;48.798;15.066;2023-09-07T09:17:47;3.13;;;2.93;;
46266;SDS011;31998;48.798;15.066;2023-09-07T09:20:33;6.07;;;3.50;;
46266;SDS011;31998;48.798;15.066;2023-09-07T09:22:58;4.77;;;2.60;;
46266;SDS011;31998;48.798;15.066;2023-09-07T09:25:24;4.60;;;3.20;;
46266;SDS011;31998;48.798;15.066;2023-09-07T09:27:49;3.13;;;2.80;;
46266;SDS011;31998;48.798;15.066;2023-09-07T09:30:14;3.27;;;2.97;;
46266;SDS011;31998;48.798;15.066;2023-09-07T09:32:41;5.53;;;3.03;;
46266;SDS011;31998;48.798;15.066;2023-09-07T09:35:07;8.90;;;3.47;;
46266;SDS011;31998;48.798;15.066;2023-09-07T09:37:32;2.97;;;2.50;;
46266;SDS011;31998;48.798;15.066;2023-09-07T09:39:58;4.03;;;3.53;;
46266;SDS011;31998;48.798;15.066;2023-09-07T09:42:25;3.07;;;2.70;;
46266;SDS011;31998;48.798;15.066;2023-09-07T09:44:51;2.90;;;2.70;;
46266;SDS011;31998;48.798;15.066;2023-09-07T09:47:17;3.00;;;2.80;;
46266;SDS011;31998;48.798;15.066;2023-09-07T09:49:43;11.63;;;2.73;;
46266;SDS011;31998;48.798;15.066;2023-09-07T09:52:09;7.87;;;2.70;;
46266;SDS011;31998;48.798;15.066;2023-09-07T09:54:35;3.20;;;3.10;;
46266;SDS011;31998;48.798;15.066;2023-09-07T09:57:00;3.03;;;2.83;;
46266;SDS011;31998;48.798;15.066;2023-09-07T09:59:25;5.20;;;3.30;;
46266;SDS011;31998;48.798;15.066;2023-09-07T10:01:51;3.73;;;3.43;;
46266;SDS011;31998;48.798;15.066;2023-09-07T10:04:17;3.57;;;3.20;;
46266;SDS011;31998;48.798;15.066;2023-09-07T10:06:50;4.10;;;3.30;;
46266;SDS011;31998;48.798;15.066;2023-09-07T10:09:18;8.47;;;2.67;;
46266;SDS011;31998;48.798;15.066;2023-09-07T10:11:50;3.50;;;3.40;;
46266;SDS011;31998;48.798;15.066;2023-09-07T10:14:16;3.27;;;3.07;;
46266;SDS011;31998;48.798;15.066;2023-09-07T10:16:42;4.00;;;3.27;;
46266;SDS011;31998;48.798;15.066;2023-09-07T10:19:15;3.57;;;3.37;;
46266;SDS011;31998;48.798;15.066;2023-09-07T10:21:40;2.80;;;2.70;;
46266;SDS011;31998;48.798;15.066;2023-09-07T10:24:06;2.93;;;2.80;;
46266;SDS011;31998;48.798;15.066;2023-09-07T10:26:31;9.13;;;3.80;;
46266;SDS011;31998;48.798;15.066;2023-09-07T10:29:00;3.60;;;3.30;;
46266;SDS011;31998;48.798;15.066;2023-09-07T10:31:27;3.47;;;3.00;;
46266;SDS011;31998;48.798;15.066;2023-09-07T10:33:52;4.90;;;3.27;;
46266;SDS011;31998;48.798;15.066;2023-09-07T10:36:35;4.10;;;3.00;;
46266;SDS011;31998;48.798;15.066;2023-09-07T10:39:02;3.23;;;3.13;;
46266;SDS011;31998;48.798;15.066;2023-09-07T10:41:29;2.83;;;2.70;;
46266;SDS011;31998;48.798;15.066;2023-09-07T10:44:04;4.93;;;2.80;;
46266;SDS011;31998;48.798;15.066;2023-09-07T10:46:29;4.03;;;3.53;;
46266;SDS011;31998;48.798;15.066;2023-09-07T10:48:54;3.90;;;3.60;;
46266;SDS011;31998;48.798;15.066;2023-09-07T10:51:21;3.13;;;2.93;;
46266;SDS011;31998;48.798;15.066;2023-09-07T10:53:46;3.50;;;3.20;;
46266;SDS011;31998;48.798;15.066;2023-09-07T10:56:12;3.33;;;3.23;;
46266;SDS011;31998;48.798;15.066;2023-09-07T10:58:37;3.97;;;3.77;;
46266;SDS011;31998;48.798;15.066;2023-09-07T11:01:07;2.93;;;2.83;;
46266;SDS011;31998;48.798;15.066;2023-09-07T11:03:32;3.67;;;3.47;;
46266;SDS011;31998;48.798;15.066;2023-09-07T11:06:03;3.23;;;3.03;;
46266;SDS011;31998;48.798;15.066;2023-09-07T11:08:29;3.57;;;3.40;;
46266;SDS011;31998;48.798;15.066;2023-09-07T11:10:55;3.23;;;3.03;;
46266;SDS011;31998;48.798;15.066;2023-09-07T11:13:21;4.00;;;3.80;;
46266;SDS011;31998;48.798;15.066;2023-09-07T11:15:46;3.47;;;3.17;;
46266;SDS011;31998;48.798;15.066;2023-09-07T11:18:11;4.00;;;3.43;;
46266;SDS011;31998;48.798;15.066;2023-09-07T11:20:36;3.17;;;2.57;;
46266;SDS011;31998;48.798;15.066;2023-09-07T11:23:04;6.80;;;3.27;;
46266;SDS011;31998;48.798;15.066;2023-09-07T11:25:36;3.67;;;3.27;;
46266;SDS011;31998;48.798;15.066;2023-09-07T11:28:02;8.77;;;2.80;;
46266;SDS011;31998;48.798;15.066;2023-09-07T11:30:27;3.00;;;2.90;;
46266;SDS011;31998;48.798;15.066;2023-09-07T11:33:30;4.50;;;2.43;;
46266;SDS011;31998;48.798;15.066;2023-09-07T11:35:45;8.60;;;4.10;;
46266;SDS011;31998;48.798;15.066;2023-09-07T11:38:12;4.73;;;2.93;;
46266;SDS011;31998;48.798;15.066;2023-09-07T11:40:38;3.03;;;2.87;;
46266;SDS011;31998;48.798;15.066;2023-09-07T11:43:03;2.93;;;2.73;;
46266;SDS011;31998;48.798;15.066;2023-09-07T11:45:28;6.20;;;2.33;;
46266;SDS011;31998;48.798;15.066;2023-09-07T11:47:54;4.70;;;3.00;;
46266;SDS011;31998;48.798;15.066;2023-09-07T11:50:19;2.77;;;2.67;;
46266;SDS011;31998;48.798;15.066;2023-09-07T11:52:45;13.40;;;3.83;;
46266;SDS011;31998;48.798;15.066;2023-09-07T11:55:13;3.20;;;3.10;;
46266;SDS011;31998;48.798;15.066;2023-09-07T11:57:38;3.70;;;3.40;;
46266;SDS011;31998;48.798;15.066;2023-09-07T12:00:04;6.53;;;3.40;;
46266;SDS011;31998;48.798;15.066;2023-09-07T12:02:30;2.80;;;2.60;;
46266;SDS011;31998;48.798;15.066;2023-09-07T12:04:55;3.90;;;3.60;;
46266;SDS011;31998;48.798;15.066;2023-09-07T12:07:20;3.10;;;2.90;;
46266;SDS011;31998;48.798;15.066;2023-09-07T12:09:45;3.70;;;2.97;;
46266;SDS011;31998;48.798;15.066;2023-09-07T12:12:11;4.77;;;2.90;;
46266;SDS011;31998;48.798;15.066;2023-09-07T12:14:36;8.27;;;2.90;;
46266;SDS011;31998;48.798;15.066;2023-09-07T12:17:01;7.20;;;3.27;;
46266;SDS011;31998;48.798;15.066;2023-09-07T12:19:26;9.93;;;3.20;;
46266;SDS011;31998;48.798;15.066;2023-09-07T12:21:51;9.23;;;3.27;;
46266;SDS011;31998;48.798;15.066;2023-09-07T12:24:17;3.30;;;3.07;;
46266;SDS011;31998;48.798;15.066;2023-09-07T12:26:42;3.17;;;2.60;;
46266;SDS011;31998;48.798;15.066;2023-09-07T12:29:07;3.80;;;2.83;;
46266;SDS011;31998;48.798;15.066;2023-09-07T12:31:33;3.43;;;2.80;;
46266;SDS011;31998;48.798;15.066;2023-09-07T12:33:58;3.47;;;2.60;;
46266;SDS011;31998;48.798;15.066;2023-09-07T12:36:23;3.27;;;3.07;;
46266;SDS011;31998;48.798;15.066;2023-09-07T12:38:49;5.60;;;3.30;;
46266;SDS011;31998;48.798;15.066;2023-09-07T12:41:14;2.60;;;2.50;;
46266;SDS011;31998;48.798;15.066;2023-09-07T12:43:40;4.70;;;2.93;;
46266;SDS011;31998;48.798;15.066;2023-09-07T12:46:06;3.20;;;2.60;;
46266;SDS011;31998;48.798;15.066;2023-09-07T12:48:31;3.30;;;2.83;;
46266;SDS011;31998;48.798;15.066;2023-09-07T12:50:56;3.03;;;2.93;;
46266;SDS011;31998;48.798;15.066;2023-09-07T12:53:21;3.53;;;3.20;;
46266;SDS011;31998;48.798;15.066;2023-09-07T12:55:53;9.37;;;2.67;;
46266;SDS011;31998;48.798;15.066;2023-09-07T12:58:18;2.50;;;2.37;;
46266;SDS011;31998;48.798;15.066;2023-09-07T13:00:44;5.43;;;2.60;;
46266;SDS011;31998;48.798;15.066;2023-09-07T13:03:09;3.87;;;2.57;;
46266;SDS011;31998;48.798;15.066;2023-09-07T13:05:34;6.67;;;3.10;;
46266;SDS011;31998;48.798;15.066;2023-09-07T13:07:59;5.13;;;2.70;;
46266;SDS011;31998;48.798;15.066;2023-09-07T13:10:27;10.23;;;3.10;;
46266;SDS011;31998;48.798;15.066;2023-09-07T13:12:52;3.03;;;2.83;;
46266;SDS011;31998;48.798;15.066;2023-09-07T13:15:18;9.97;;;3.07;;
46266;SDS011;31998;48.798;15.066;2023-09-07T13:17:43;2.73;;;2.63;;
46266;SDS011;31998;48.798;15.066;2023-09-07T13:20:08;4.00;;;2.97;;
46266;SDS011;31998;48.798;15.066;2023-09-07T13:22:34;3.20;;;2.90;;
46266;SDS011;31998;48.798;15.066;2023-09-07T13:24:59;3.17;;;2.97;;
46266;SDS011;31998;48.798;15.066;2023-09-07T13:27:25;4.57;;;3.00;;
46266;SDS011;31998;48.798;15.066;2023-09-07T13:29:51;6.23;;;3.30;;
46266;SDS011;31998;48.798;15.066;2023-09-07T13:32:16;2.37;;;2.27;;
46266;SDS011;31998;48.798;15.066;2023-09-07T13:34:42;3.17;;;2.60;;
46266;SDS011;31998;48.798;15.066;2023-09-07T13:37:07;4.70;;;2.60;;
46266;SDS011;31998;48.798;15.066;2023-09-07T13:39:32;3.90;;;2.80;;
46266;SDS011;31998;48.798;15.066;2023-09-07T13:41:58;4.77;;;3.00;;
46266;SDS011;31998;48.798;15.066;2023-09-07T13:44:23;3.20;;;3.00;;
46266;SDS011;31998;48.798;15.066;2023-09-07T13:46:48;3.40;;;3.20;;
46266;SDS011;31998;48.798;15.066;2023-09-07T13:49:14;2.90;;;2.80;;
46266;SDS011;31998;48.798;15.066;2023-09-07T13:51:42;6.23;;;2.80;;
46266;SDS011;31998;48.798;15.066;2023-09-07T13:54:08;4.00;;;2.50;;
46266;SDS011;31998;48.798;15.066;2023-09-07T13:56:33;2.90;;;2.63;;
46266;SDS011;31998;48.798;15.066;2023-09-07T13:58:59;3.53;;;2.83;;
46266;SDS011;31998;48.798;15.066;2023-09-07T14:01:24;3.70;;;3.40;;
46266;SDS011;31998;48.798;15.066;2023-09-07T14:03:50;3.20;;;3.00;;
46266;SDS011;31998;48.798;15.066;2023-09-07T14:06:15;3.10;;;2.80;;
46266;SDS011;31998;48.798;15.066;2023-09-07T14:08:40;2.90;;;2.80;;
46266;SDS011;31998;48.798;15.066;2023-09-07T14:11:05;3.50;;;3.27;;
46266;SDS011;31998;48.798;15.066;2023-09-07T14:13:31;4.83;;;2.70;;
46266;SDS011;31998;48.798;15.066;2023-09-07T14:15:59;4.03;;;3.40;;
46266;SDS011;31998;48.798;15.066;2023-09-07T14:18:24;4.77;;;2.57;;
46266;SDS011;31998;48.798;15.066;2023-09-07T14:20:49;3.70;;;3.40;;
46266;SDS011;31998;48.798;15.066;2023-09-07T14:23:15;3.67;;;2.97;;
46266;SDS011;31998;48.798;15.066;2023-09-07T14:25:40;4.40;;;3.17;;